Tyne, United Kingdom
Current Conditions -  °F | °C
As of 4:20 AM on Thursday 29 Jan 2015 (Local Time) from EGNT Reporting Station
Snow Showers Snow Showers  
Wind Chill: 21°   Ceiling: 2000
Heat Index: 34°   Visibility: 2.5mi
Dew Point: 30°   Wind: 26mph
Humidity: 87%   Direction: 270°W
Pressure: 28.94"   Gusts: 40mph
Location:  55°N, 1.7°W
Report Text: EGNT 290420Z 27023G35KT 4000 SHSN SCT007 BKN020 01/M01 Q0980
Loading
Personal Weather Stations






























Interactive Weather Map New forecast layout! Learn more

10-Day Weather Forecast

Advertisements
Track Severe Weather on mobile